Latest Weather Observations for Kalumburu

IDW60801

Issued at 6:35 pm WST Wednesday 1 October 2014 (issued every 30 minutes, with the page automatically refreshed every 10 minutes)

About weather observations | Map of weather stations | Latest weather observations for WA | Other Formats
Station Details ID: 001019 Name: KALUMBURU Lat: -14.30 Lon: 126.65 Height: 23.0 m
Data from the previous 72 hours. | See also: Recent months at Kalumburu
Date/Time
WST
Temp
°C
App
Temp
°C
Dew
Point
Rel
Hum
%
Delta-T
°C
Wind Press
QNH
hPa
Press
MSL
hPa
Rain
since 9 am
mm
Dir
 
Spd
km/h
Gust
km/h
Spd
kts
Gust
kts
01/06:30pm 28.2 29.4 19.1 57 5.9 NNW 11 17 6 9 1012.1 1011.9 0.0
01/06:00pm 28.5 29.5 19.4 57 5.9 N 13 19 7 10 1011.6 1011.4 0.0
01/05:30pm 28.9 29.6 20.4 60 5.6 N 17 26 9 14 1011.1 1010.9 0.0
01/05:00pm 29.4 30.0 20.3 58 6.0 N 17 24 9 13 1010.6 1010.4 0.0
01/04:30pm 29.9 30.1 20.5 57 6.2 N 20 30 11 16 1010.3 1010.1 0.0
01/04:00pm 30.5 29.9 19.8 52 7.0 N 22 32 12 17 1010.1 1009.9 0.0
01/03:30pm 31.3 29.9 17.9 44 8.6 N 22 32 12 17 1010.0 1009.8 0.0
01/03:00pm 32.1 30.3 17.9 42 9.1 N 24 35 13 19 1010.1 1009.9 0.0
01/02:30pm 33.0 32.2 18.0 41 9.7 N 19 28 10 15 1010.1 1009.9 0.0
01/02:00pm 32.3 31.1 17.4 41 9.5 NNW 20 30 11 16 1010.3 1010.1 0.0
01/01:30pm 33.5 32.9 17.6 38 10.2 NNW 17 28 9 15 1010.7 1010.5 0.0
01/01:00pm 33.4 32.6 17.1 37 10.4 N 17 26 9 14 1011.1 1010.9 0.0
01/12:30pm 33.2 32.5 16.5 36 10.6 N 15 20 8 11 1011.8 1011.6 0.0
01/12:00pm 32.8 31.7 14.4 33 11.3 N 13 20 7 11 1012.3 1012.1 0.0
01/11:30am 32.6 31.6 14.7 34 11.0 NW 13 20 7 11 1012.8 1012.6 0.0
01/11:00am 32.1 30.5 16.0 38 10.1 NNW 19 30 10 16 1013.5 1013.3 0.0
01/10:30am 32.0 31.8 17.5 42 9.3 NNW 15 24 8 13 1014.1 1013.9 0.0
01/10:00am 31.5 31.6 17.4 43 9.0 N 13 20 7 11 1014.7 1014.5 0.0
01/09:30am 31.5 31.8 17.8 44 8.8 NNW 13 20 7 11 1015.2 1015.0 0.0
01/09:00am 29.6 30.6 18.7 52 7.0 N 11 20 6 11 1015.4 1015.2 0.0
01/08:30am 28.4 30.6 19.3 57 5.9 WNW 6 11 3 6 1015.5 1015.3 0.0
01/08:00am 28.2 30.5 20.7 63 5.0 WNW 9 13 5 7 1014.9 1014.7 0.0
01/07:30am 27.4 30.7 21.4 70 4.0 WNW 6 9 3 5 1014.8 1014.6 0.0
01/07:00am 26.4 29.7 21.4 74 3.3 NNW 6 9 3 5 1014.7 1014.5 0.0
01/06:30am 24.4 27.6 21.7 85 1.8 ENE 7 11 4 6 1014.6 1014.4 0.0
01/06:00am 21.5 24.7 19.8 90 1.1 NE 2 7 1 4 1013.8 1013.6 0.0
01/05:30am 20.9 23.5 19.2 90 1.1 S 4 7 2 4 1013.2 1013.0 0.0
01/05:00am 20.7 24.0 19.0 90 1.1 CALM 0 0 0 0 1013.0 1012.8 0.0
01/04:30am 21.0 24.0 19.3 90 1.1 NE 2 9 1 5 1012.5 1012.3 0.0
01/04:00am 20.3 23.3 18.4 89 1.2 CALM 0 0 0 0 1012.2 1012.0 0.0
01/03:30am 20.6 23.7 18.7 89 1.2 CALM 0 0 0 0 1011.9 1011.7 0.0
01/03:00am 20.7 23.9 18.8 89 1.2 CALM 0 0 0 0 1011.8 1011.6 0.0
01/02:30am 20.6 23.6 18.5 88 1.3 CALM 0 0 0 0 1011.8 1011.6 0.0
01/02:00am 21.1 24.4 19.0 88 1.3 CALM 0 0 0 0 1011.8 1011.6 0.0
01/01:30am 21.3 24.6 19.2 88 1.3 CALM 0 0 0 0 1011.9 1011.7 0.0
01/01:00am 21.4 24.7 19.1 87 1.5 CALM 0 0 0 0 1012.1 1011.9 0.0
01/12:30am 21.6 24.9 19.2 86 1.5 CALM 0 0 0 0 1012.3 1012.1 0.0
01/12:00am 21.9 25.3 19.3 85 1.7 WSW 0 0 0 0 1012.4 1012.2 0.0
 
Date/Time
WST
Temp
°C
App
Temp
°C
Dew
Point
Rel
Hum
%
Delta-T
°C
Wind Press
QNH
hPa
Press
MSL
hPa
Rain
since 9 am
mm
Dir
 
Spd
km/h
Gust
km/h
Spd
kts
Gust
kts
30/11:30pm 22.4 25.9 19.6 84 1.8 CALM 0 0 0 0 1012.7 1012.5 0.0
30/11:00pm 22.9 26.1 18.9 78 2.5 CALM 0 6 0 3 1013.0 1012.8 0.0
30/10:30pm 24.6 27.1 19.9 75 3.0 NW 6 7 3 4 1013.1 1012.9 0.0
30/10:00pm 24.8 27.3 19.8 74 3.2 WNW 6 7 3 4 1013.4 1013.2 0.0
30/09:30pm 25.5 28.2 20.3 73 3.4 W 6 9 3 5 1013.5 1013.3 0.0
30/09:00pm 26.0 28.5 20.3 71 3.7 NNW 7 11 4 6 1013.6 1013.4 0.0
30/08:30pm 26.4 28.6 20.3 69 4.0 NNW 9 13 5 7 1013.7 1013.5 0.0
30/08:00pm 26.6 29.1 20.2 68 4.2 NNW 7 11 4 6 1013.5 1013.3 0.0
30/07:30pm 26.9 28.3 20.3 67 4.3 N 13 19 7 10 1013.2 1013.0 0.0
30/07:00pm 27.0 28.7 20.1 66 4.5 N 11 19 6 10 1012.8 1012.6 0.0
30/06:30pm 27.2 28.1 20.0 64 4.7 N 15 24 8 13 1012.5 1012.3 0.0
30/06:00pm 27.3 28.4 20.4 66 4.5 N 15 24 8 13 1012.2 1012.0 0.0
30/05:30pm 27.4 27.7 20.5 66 4.5 N 19 28 10 15 1011.7 1011.5 0.0
30/05:00pm 27.9 28.1 20.2 63 5.1 NNW 19 26 10 14 1011.3 1011.1 0.0
30/04:30pm 28.9 28.8 19.5 57 6.1 NNW 19 28 10 15 1010.8 1010.6 0.0
30/04:00pm 29.7 28.5 17.5 48 7.7 N 20 30 11 16 1010.3 1010.1 0.0
30/03:30pm 30.6 27.9 13.4 35 10.3 N 20 32 11 17 1010.2 1010.0 0.0
30/03:00pm 31.4 27.2 11.2 29 11.7 N 24 35 13 19 1010.3 1010.1 0.0
30/02:30pm 31.9 28.2 12.7 31 11.4 N 24 33 13 18 1010.5 1010.3 0.0
30/02:00pm 31.7 27.0 9.3 25 12.6 NNW 24 33 13 18 1010.7 1010.5 0.0
30/01:30pm 32.7 27.9 8.9 23 13.4 N 24 35 13 19 1011.0 1010.8 0.0
30/01:00pm 33.0 28.3 9.1 23 13.5 N 24 35 13 19 1011.4 1011.2 0.0
30/12:30pm 33.3 30.2 13.4 30 12.0 N 22 30 12 16 1011.7 1011.5 0.0
30/12:00pm 32.6 28.8 11.2 27 12.5 N 22 28 12 15 1012.1 1011.9 0.0
30/11:30am 32.5 30.2 14.6 34 11.0 N 20 30 11 16 1012.5 1012.3 0.0
30/11:00am 31.6 29.3 14.7 36 10.4 N 20 32 11 17 1012.7 1012.5 0.0
30/10:30am 32.6 32.5 18.8 44 9.0 N 17 24 9 13 1013.2 1013.0 0.0
30/10:00am 31.6 32.0 18.2 44 8.6 N 13 22 7 12 1013.6 1013.4 0.0
30/09:30am 31.2 30.8 17.1 42 8.9 N 15 20 8 11 1013.5 1013.3 0.0
30/09:00am 30.1 31.2 17.9 48 7.8 NNW 9 15 5 8 1013.9 1013.7 -
30/08:30am 28.8 30.4 19.1 55 6.3 NNW 9 13 5 7 1014.1 1013.9 -
30/08:00am 28.2 30.2 20.0 61 5.4 NW 9 13 5 7 1014.3 1014.1 -
30/07:30am 28.0 31.1 21.5 67 4.3 NW 7 13 4 7 1014.3 1014.1 -
30/07:00am 25.4 29.8 21.3 78 2.7 CALM 0 0 0 0 1013.8 1013.6 -
30/06:30am 23.3 27.8 21.6 90 1.1 CALM 0 0 0 0 1013.5 1013.3 -
30/06:00am 21.3 24.9 19.8 91 1.0 CALM 0 0 0 0 1013.2 1013.0 -
30/05:30am 20.3 23.4 18.6 90 1.1 CALM 0 0 0 0 1012.9 1012.7 -
30/05:00am 20.2 23.2 18.5 90 1.1 CALM 0 0 0 0 1012.6 1012.4 -
30/04:30am 20.7 24.0 19.0 90 1.1 CALM 0 0 0 0 1012.3 1012.1 -
30/04:00am 20.3 23.3 18.4 89 1.2 CALM 0 0 0 0 1011.9 1011.7 -
30/03:30am 20.7 24.0 19.0 90 1.1 CALM 0 0 0 0 1011.6 1011.4 -
30/03:00am 20.8 24.0 18.9 89 1.2 CALM 0 0 0 0 1011.5 1011.3 0.0
30/02:30am 21.6 25.3 19.9 90 1.1 CALM 0 0 0 0 1011.3 1011.1 -
30/02:00am 21.0 24.2 18.9 88 1.3 CALM 0 0 0 0 1011.4 1011.2 -
30/01:30am 21.8 25.5 19.9 89 1.2 CALM 0 0 0 0 1011.5 1011.3 -
30/01:00am 21.5 24.8 19.2 87 1.5 CALM 0 0 0 0 1011.7 1011.5 -
30/12:30am 22.1 25.8 20.0 88 1.3 CALM 0 0 0 0 1011.7 1011.5 -
30/12:00am 22.4 26.2 20.1 87 1.5 CALM 0 0 0 0 1012.0 1011.8 -
 
Date/Time
WST
Temp
°C
App
Temp
°C
Dew
Point
Rel
Hum
%
Delta-T
°C
Wind Press
QNH
hPa
Press
MSL
hPa
Rain
since 9 am
mm
Dir
 
Spd
km/h
Gust
km/h
Spd
kts
Gust
kts
29/11:30pm 22.4 26.1 19.9 86 1.6 CALM 0 0 0 0 1012.3 1012.1 -
29/11:00pm 23.5 27.5 20.6 84 1.9 CALM 0 0 0 0 1012.6 1012.4 -
29/10:30pm 24.1 28.2 20.8 82 2.2 CALM 0 7 0 4 1012.8 1012.6 -
29/10:00pm 24.6 28.8 20.9 80 2.4 CALM 0 0 0 0 1013.2 1013.0 -
29/09:30pm 25.7 28.8 21.1 76 3.0 NW 6 7 3 4 1013.1 1012.9 -
29/09:00pm 26.3 28.7 21.5 75 3.2 NNW 11 15 6 8 1012.8 1012.6 0.0
29/08:30pm 26.3 29.1 21.5 75 3.2 NNW 9 15 5 8 1012.7 1012.5 -
29/08:00pm 26.5 28.9 21.5 74 3.3 NNW 11 15 6 8 1012.5 1012.3 -
29/07:30pm 26.7 28.5 21.2 72 3.6 NNW 13 19 7 10 1012.2 1012.0 -
29/07:00pm 26.9 28.3 20.3 67 4.3 NW 13 19 7 10 1011.6 1011.4 -
29/06:30pm 27.3 28.3 19.4 62 5.1 NNW 13 17 7 9 1011.0 1010.8 -
29/06:00pm 27.6 28.9 20.9 67 4.4 NNW 15 20 8 11 1010.7 1010.5 -
29/05:30pm 27.9 28.1 20.2 63 5.1 N 19 24 10 13 1010.3 1010.1 -
29/05:00pm 28.5 28.6 20.0 60 5.6 N 19 32 10 17 1010.0 1009.8 -
29/04:30pm 29.2 28.9 19.5 56 6.3 N 20 30 11 16 1009.7 1009.5 -
29/04:00pm 30.3 30.1 19.3 51 7.2 N 19 28 10 15 1009.6 1009.4 -
29/03:30pm 30.4 29.2 18.5 49 7.7 N 22 32 12 17 1009.4 1009.2 -
29/03:00pm 30.8 29.5 18.2 47 8.1 NNW 22 - 12 - - 1009.4 -
29/02:30pm 31.4 31.1 20.4 52 7.3 NNW 22 35 12 19 1009.7 1009.5 0.0
29/02:00pm 30.7 30.5 21.2 57 6.4 N 24 33 13 18 1009.8 1009.6 0.0
29/01:30pm 30.8 30.6 21.3 57 6.4 N 24 35 13 19 1010.2 1010.0 0.0
29/01:00pm 31.4 30.9 20.0 50 7.5 N 22 33 12 18 1010.5 1010.3 0.0
29/12:30pm 32.6 32.3 21.1 50 7.7 N 24 43 13 23 1010.8 1010.6 0.0
29/12:00pm 32.2 32.0 19.8 48 8.2 N 20 32 11 17 1011.2 1011.0 0.0
29/11:30am 32.6 32.6 20.2 48 8.2 NNW 20 32 11 17 1011.5 1011.3 0.0
29/11:00am 33.6 33.0 18.9 41 9.6 N 20 26 11 14 1011.9 1011.7 0.0
29/10:30am 33.1 34.2 18.8 42 9.3 NW 11 19 6 10 1011.9 1011.7 0.0
29/10:00am 33.0 34.6 19.1 43 9.1 NE 9 17 5 9 1012.4 1012.2 0.0
29/09:30am 31.5 33.8 19.8 49 7.7 NNW 7 13 4 7 1012.7 1012.5 0.0
29/09:00am 30.2 33.0 20.4 55 6.5 W 6 7 3 4 1012.8 1012.6 0.0
29/08:30am 29.8 32.9 21.5 61 5.6 E 7 9 4 5 1013.0 1012.8 0.0
29/08:00am 28.6 32.7 21.6 66 4.7 NNW 2 7 1 4 1013.1 1012.9 0.0
29/07:30am 27.1 30.4 21.8 73 3.5 S 7 11 4 6 1013.0 1012.8 0.0
29/07:00am 25.6 28.1 21.7 79 2.6 S 11 15 6 8 1012.6 1012.4 0.0
29/06:30am 23.9 28.5 21.8 88 1.4 CALM 0 0 0 0 1012.2 1012.0 0.0
29/06:00am 21.7 25.0 20.0 90 1.1 ESE 2 11 1 6 1011.9 1011.7 0.0
29/05:30am 20.9 23.9 19.2 90 1.1 SSE 2 7 1 4 1011.6 1011.4 0.0
29/05:00am 21.4 25.1 19.9 91 1.0 CALM 0 0 0 0 1011.4 1011.2 0.0
29/04:30am 20.4 22.8 18.9 91 0.9 ENE 4 7 2 4 1011.1 1010.9 0.0
29/04:00am 19.4 22.1 17.7 90 1.0 CALM 0 0 0 0 1010.9 1010.7 0.0
29/03:30am 19.7 21.4 18.0 90 1.0 E 6 7 3 4 1010.5 1010.3 0.0
29/03:00am 19.4 22.0 17.5 89 1.2 CALM 0 0 0 0 1010.3 1010.1 0.0
29/02:30am 19.9 22.7 18.0 89 1.2 CALM 0 0 0 0 1010.4 1010.2 0.0
29/02:00am 20.3 23.4 18.6 90 1.1 CALM 0 0 0 0 1010.3 1010.1 0.0
29/01:30am 20.4 23.4 18.5 89 1.2 CALM 0 0 0 0 1010.4 1010.2 0.0
29/01:00am 20.3 23.2 18.2 88 1.3 CALM 0 0 0 0 1010.7 1010.5 0.0
29/12:30am 21.0 24.2 18.9 88 1.3 CALM 0 0 0 0 1011.0 1010.8 0.0
29/12:00am 20.6 22.4 18.4 87 1.4 SE 6 7 3 4 1011.3 1011.1 0.0
 
Date/Time
WST
Temp
°C
App
Temp
°C
Dew
Point
Rel
Hum
%
Delta-T
°C
Wind Press
QNH
hPa
Press
MSL
hPa
Rain
since 9 am
mm
Dir
 
Spd
km/h
Gust
km/h
Spd
kts
Gust
kts
28/11:30pm 21.5 24.8 19.2 87 1.5 CALM 0 0 0 0 1011.5 1011.3 0.0
28/11:00pm 21.8 25.1 19.2 85 1.6 CALM 0 0 0 0 1011.8 1011.6 0.0
28/10:30pm 22.5 26.0 19.5 83 1.9 CALM 0 0 0 0 1012.0 1011.8 0.0
28/10:00pm 23.8 26.9 20.3 81 2.3 NW 4 7 2 4 1012.1 1011.9 0.0
28/09:30pm 24.6 28.0 20.1 76 2.9 NNW 2 7 1 4 1012.3 1012.1 0.0
28/09:00pm 25.9 28.4 20.2 71 3.7 NNW 7 11 4 6 1012.2 1012.0 0.0
28/08:30pm 26.4 28.6 20.3 69 4.0 N 9 13 5 7 1012.1 1011.9 0.0
28/08:00pm 26.7 28.4 20.1 67 4.3 N 11 17 6 9 1011.7 1011.5 0.0
28/07:30pm 27.0 29.1 20.1 66 4.5 N 9 15 5 8 1011.3 1011.1 0.0
28/07:00pm 27.5 28.9 20.3 65 4.7 N 13 19 7 10 1011.1 1010.9 0.0

Other Formats:

Comma delimited format used in spreadsheet applications
http://www.bom.gov.au/fwo/IDW60801/IDW60801.94100.axf

JavaScript Object Notation format (JSON) in row-major order
http://www.bom.gov.au/fwo/IDW60801/IDW60801.94100.json